Time;durP1;ratioP1;P1;durP2;ratioP2;P2;SDS_P1;SDS_P2;PMS_P1;PMS_P2;Temp;Humidity;BMP_temperature;BMP_pressure;BME280_temperature;BME280_humidity;BME280_pressure;Samples;Min_cycle;Max_cycle;Signal;HPM_P1;HPM_P2
2022/10/23 00:01:45;;;;;;;1.00;0.88;;;;;;;;;;4491192;28;20097;-62
2022/10/23 00:04:02;;;;;;;1.48;1.10;;;;;;;;;;4490697;28;20117;-62
2022/10/23 00:06:13;;;;;;;1.67;1.08;;;;;;;;;;4490564;28;20038;-62
2022/10/23 00:08:23;;;;;;;1.25;1.13;;;;;;;;;;4491054;28;20038;-62
2022/10/23 00:10:34;;;;;;;1.70;1.20;;;;;;;;;;4493067;28;20038;-61
2022/10/23 00:12:45;;;;;;;1.70;1.10;;;;;;;;;;4489927;28;20113;-62
2022/10/23 00:14:56;;;;;;;1.98;1.20;;;;;;;;;;4500136;28;20041;-62
2022/10/23 00:17:06;;;;;;;1.65;1.17;;;;;;;;;;4491635;28;34876;-62
2022/10/23 00:19:17;;;;;;;1.80;1.20;;;;;;;;;;4490815;28;32037;-61
2022/10/23 00:21:27;;;;;;;2.50;1.35;;;;;;;;;;4490630;28;41852;-62
2022/10/23 00:23:39;;;;;;;1.77;1.00;;;;;;;;;;4491428;28;22909;-62
2022/10/23 00:25:49;;;;;;;1.73;1.20;;;;;;;;;;4492088;28;20045;-62
2022/10/23 00:28:00;;;;;;;1.83;1.33;;;;;;;;;;4489502;28;20046;-61
2022/10/23 00:30:11;;;;;;;1.92;1.10;;;;;;;;;;4490823;28;31162;-62
2022/10/23 00:32:22;;;;;;;1.10;1.00;;;;;;;;;;4494469;28;20030;-62
2022/10/23 00:34:32;;;;;;;1.48;1.00;;;;;;;;;;4488192;28;20034;-61
2022/10/23 00:36:43;;;;;;;1.35;0.95;;;;;;;;;;4492981;28;20429;-61
2022/10/23 00:38:53;;;;;;;1.17;1.05;;;;;;;;;;4491859;28;36783;-62
2022/10/23 00:41:05;;;;;;;1.35;0.80;;;;;;;;;;4491559;28;20046;-62
2022/10/23 00:43:20;;;;;;;1.00;0.90;;;;;;;;;;4483771;28;20041;-61
2022/10/23 00:45:32;;;;;;;1.10;0.80;;;;;;;;;;4482085;28;20097;-62
2022/10/23 00:47:42;;;;;;;0.98;0.90;;;;;;;;;;4489653;28;20049;-61
2022/10/23 00:49:53;;;;;;;0.77;0.77;;;;;;;;;;4490100;28;20429;-61
2022/10/23 00:52:06;;;;;;;1.50;1.00;;;;;;;;;;4491243;28;20105;-62
2022/10/23 00:54:19;;;;;;;1.10;0.80;;;;;;;;;;4498706;28;20038;-61
2022/10/23 00:56:30;;;;;;;1.17;1.00;;;;;;;;;;4481938;28;20803;-62
2022/10/23 00:58:40;;;;;;;0.90;0.80;;;;;;;;;;4475208;28;20035;-62
2022/10/23 01:00:54;;;;;;;1.52;0.90;;;;;;;;;;4490452;28;20776;-61
2022/10/23 01:03:04;;;;;;;1.80;1.10;;;;;;;;;;4488546;28;20133;-61
2022/10/23 01:05:15;;;;;;;1.00;0.90;;;;;;;;;;4490648;28;30186;-62
2022/10/23 01:07:39;;;;;;;1.13;0.85;;;;;;;;;;4477190;28;20040;-62
2022/10/23 01:10:02;;;;;;;1.17;1.00;;;;;;;;;;4491367;28;20036;-62
2022/10/23 01:12:25;;;;;;;0.95;0.82;;;;;;;;;;4481884;28;20035;-62
2022/10/23 01:14:40;;;;;;;1.67;0.80;;;;;;;;;;4496187;28;21136;-61
2022/10/23 01:17:07;;;;;;;1.35;0.90;;;;;;;;;;4492723;28;20562;-61
2022/10/23 01:19:41;;;;;;;0.90;0.90;;;;;;;;;;4498689;28;20042;-62
2022/10/23 01:22:23;;;;;;;1.25;0.90;;;;;;;;;;4483253;28;20041;-62
2022/10/23 01:24:46;;;;;;;1.13;1.00;;;;;;;;;;4482505;28;20039;-62
2022/10/23 01:27:20;;;;;;;1.10;0.95;;;;;;;;;;4474273;28;21235;-61
2022/10/23 01:29:40;;;;;;;1.17;0.90;;;;;;;;;;4488956;28;20038;-62
2022/10/23 01:31:58;;;;;;;1.25;0.80;;;;;;;;;;4487650;28;20859;-62
2022/10/23 01:34:21;;;;;;;1.20;0.90;;;;;;;;;;4484131;28;20070;-62
2022/10/23 01:36:32;;;;;;;1.15;0.98;;;;;;;;;;4481775;28;20034;-62
2022/10/23 01:38:57;;;;;;;1.30;0.90;;;;;;;;;;4476452;28;20074;-62
2022/10/23 01:41:38;;;;;;;1.38;0.90;;;;;;;;;;4488220;28;20037;-62
2022/10/23 01:43:53;;;;;;;1.25;0.93;;;;;;;;;;4488508;28;20030;-62
2022/10/23 01:46:06;;;;;;;0.88;0.80;;;;;;;;;;4493080;28;20029;-61
2022/10/23 01:48:24;;;;;;;0.68;0.68;;;;;;;;;;4476971;28;20611;-62
2022/10/23 01:50:35;;;;;;;1.42;0.90;;;;;;;;;;4481726;28;20042;-62
2022/10/23 01:52:47;;;;;;;0.95;0.80;;;;;;;;;;4474129;28;20249;-62
2022/10/23 01:55:00;;;;;;;1.63;1.00;;;;;;;;;;4497774;28;20030;-62
2022/10/23 01:57:15;;;;;;;1.13;0.90;;;;;;;;;;4481533;28;20540;-62
2022/10/23 01:59:34;;;;;;;0.70;0.65;;;;;;;;;;4492051;28;20105;-62
2022/10/23 02:01:46;;;;;;;1.25;0.70;;;;;;;;;;4497077;28;20034;-62
2022/10/23 02:03:57;;;;;;;1.60;0.80;;;;;;;;;;4474336;28;20058;-62
2022/10/23 02:06:09;;;;;;;1.73;0.90;;;;;;;;;;4476262;28;20034;-62
2022/10/23 02:08:20;;;;;;;1.00;0.70;;;;;;;;;;4487290;28;20034;-62
2022/10/23 02:10:44;;;;;;;1.77;0.80;;;;;;;;;;4493525;28;20029;-62
2022/10/23 02:13:08;;;;;;;1.10;0.77;;;;;;;;;;4490844;28;20030;-62
2022/10/23 02:15:27;;;;;;;1.20;0.88;;;;;;;;;;4489810;28;20822;-62
2022/10/23 02:18:02;;;;;;;0.98;0.85;;;;;;;;;;4493584;28;20033;-62
2022/10/23 02:20:21;;;;;;;1.65;0.90;;;;;;;;;;4489499;28;21189;-62
2022/10/23 02:22:37;;;;;;;1.35;0.70;;;;;;;;;;4492544;28;20041;-61
2022/10/23 02:25:04;;;;;;;0.85;0.75;;;;;;;;;;4471364;28;20157;-62
2022/10/23 02:27:19;;;;;;;0.68;0.68;;;;;;;;;;4503696;28;20057;-62
2022/10/23 02:29:35;;;;;;;0.82;0.70;;;;;;;;;;4475136;28;20049;-61
2022/10/23 02:31:46;;;;;;;1.35;0.90;;;;;;;;;;4476455;28;20133;-62
2022/10/23 02:33:56;;;;;;;0.60;0.60;;;;;;;;;;4504457;28;20091;-62
2022/10/23 02:36:07;;;;;;;1.60;0.80;;;;;;;;;;4496577;28;20037;-61
2022/10/23 02:38:36;;;;;;;1.08;0.70;;;;;;;;;;4473484;28;20730;-62
2022/10/23 02:40:46;;;;;;;1.45;0.80;;;;;;;;;;4488722;28;20085;-62
2022/10/23 02:43:03;;;;;;;0.88;0.75;;;;;;;;;;4490740;28;20037;-62
2022/10/23 02:45:16;;;;;;;1.10;0.88;;;;;;;;;;4488006;28;20038;-62
2022/10/23 02:47:27;;;;;;;0.75;0.73;;;;;;;;;;4480249;28;20039;-62
2022/10/23 02:49:55;;;;;;;1.10;0.77;;;;;;;;;;4492206;28;20130;-62
2022/10/23 02:52:17;;;;;;;1.05;0.70;;;;;;;;;;4480817;28;20112;-61
2022/10/23 02:54:41;;;;;;;1.20;0.75;;;;;;;;;;4481093;28;20038;-62
2022/10/23 02:57:07;;;;;;;1.17;0.70;;;;;;;;;;4486430;28;20034;-61
2022/10/23 02:59:55;;;;;;;1.15;0.80;;;;;;;;;;4497602;28;20535;-62
2022/10/23 03:02:19;;;;;;;0.75;0.70;;;;;;;;;;4451339;28;20137;-61
2022/10/23 03:04:30;;;;;;;0.75;0.60;;;;;;;;;;4475470;28;20579;-62
2022/10/23 03:06:41;;;;;;;0.80;0.70;;;;;;;;;;4480982;28;20631;-62
2022/10/23 03:09:01;;;;;;;0.85;0.77;;;;;;;;;;4497338;28;20046;-61
2022/10/23 03:11:11;;;;;;;0.73;0.65;;;;;;;;;;4497695;28;20044;-62
2022/10/23 03:13:22;;;;;;;2.40;0.80;;;;;;;;;;4498681;28;20099;-62
2022/10/23 03:15:33;;;;;;;1.08;0.70;;;;;;;;;;4491794;28;20033;-61
2022/10/23 03:17:43;;;;;;;0.88;0.75;;;;;;;;;;4491816;28;20124;-63
2022/10/23 03:19:53;;;;;;;1.02;0.70;;;;;;;;;;4501551;28;20042;-62
2022/10/23 03:22:04;;;;;;;0.90;0.70;;;;;;;;;;4492056;28;32436;-62
2022/10/23 03:24:14;;;;;;;0.70;0.60;;;;;;;;;;4499618;28;26264;-62
2022/10/23 03:26:27;;;;;;;0.60;0.50;;;;;;;;;;4495524;28;20081;-62
2022/10/23 03:28:37;;;;;;;0.75;0.70;;;;;;;;;;4495422;28;20479;-62
2022/10/23 03:30:48;;;;;;;2.50;0.60;;;;;;;;;;4489907;28;20030;-62
2022/10/23 03:32:58;;;;;;;0.60;0.60;;;;;;;;;;4500794;28;20022;-62
2022/10/23 03:35:08;;;;;;;1.23;0.75;;;;;;;;;;4491321;28;23272;-62
2022/10/23 03:37:19;;;;;;;0.80;0.70;;;;;;;;;;4490336;28;20046;-62
2022/10/23 03:39:29;;;;;;;0.65;0.50;;;;;;;;;;4495021;28;22513;-62
2022/10/23 03:41:40;;;;;;;0.70;0.50;;;;;;;;;;4494475;28;20979;-62
2022/10/23 03:43:51;;;;;;;0.60;0.60;;;;;;;;;;4500579;28;20088;-62
2022/10/23 03:46:01;;;;;;;0.90;0.70;;;;;;;;;;4491734;28;40804;-62
2022/10/23 03:48:12;;;;;;;0.85;0.63;;;;;;;;;;4492652;28;20505;-62
2022/10/23 03:50:22;;;;;;;0.75;0.65;;;;;;;;;;4467076;28;20057;-62
2022/10/23 03:52:33;;;;;;;0.70;0.65;;;;;;;;;;4495676;28;20036;-61
2022/10/23 03:54:44;;;;;;;0.73;0.60;;;;;;;;;;4491736;28;20093;-62
2022/10/23 03:56:54;;;;;;;1.38;0.63;;;;;;;;;;4494686;28;20113;-62
2022/10/23 03:59:05;;;;;;;1.98;0.70;;;;;;;;;;4501237;28;20499;-61
2022/10/23 04:01:15;;;;;;;1.00;0.70;;;;;;;;;;4490511;28;33562;-62
2022/10/23 04:03:26;;;;;;;0.57;0.50;;;;;;;;;;4494545;28;20038;-62
2022/10/23 04:05:36;;;;;;;0.75;0.50;;;;;;;;;;4493230;28;23166;-62
2022/10/23 04:07:47;;;;;;;0.70;0.60;;;;;;;;;;4491869;28;20057;-61
2022/10/23 04:09:57;;;;;;;0.55;0.55;;;;;;;;;;4494277;28;22520;-62
2022/10/23 04:12:08;;;;;;;0.75;0.60;;;;;;;;;;4500647;28;20456;-62
2022/10/23 04:14:18;;;;;;;0.95;0.70;;;;;;;;;;4492953;28;20408;-61
2022/10/23 04:16:29;;;;;;;0.80;0.55;;;;;;;;;;4493519;28;40440;-61
2022/10/23 04:18:40;;;;;;;1.63;0.60;;;;;;;;;;4490598;28;22641;-62
2022/10/23 04:20:53;;;;;;;0.98;0.60;;;;;;;;;;4484142;28;20061;-62
2022/10/23 04:23:03;;;;;;;0.75;0.75;;;;;;;;;;4500722;28;20076;-61
2022/10/23 04:25:16;;;;;;;0.63;0.50;;;;;;;;;;4494936;28;20030;-62
2022/10/23 04:27:26;;;;;;;0.73;0.70;;;;;;;;;;4479838;28;20034;-62
2022/10/23 04:29:39;;;;;;;1.02;0.70;;;;;;;;;;4493286;28;20705;-61
2022/10/23 04:31:50;;;;;;;0.75;0.70;;;;;;;;;;4499391;28;20132;-61
2022/10/23 04:34:00;;;;;;;0.85;0.60;;;;;;;;;;4490169;28;20037;-62
2022/10/23 04:36:15;;;;;;;1.02;0.65;;;;;;;;;;4477672;28;20045;-63
2022/10/23 04:38:25;;;;;;;1.15;0.63;;;;;;;;;;4483042;28;20093;-62
2022/10/23 04:40:36;;;;;;;1.15;0.60;;;;;;;;;;4500654;28;20131;-62
2022/10/23 04:42:46;;;;;;;0.70;0.60;;;;;;;;;;4491650;28;20038;-62
2022/10/23 04:44:57;;;;;;;0.63;0.60;;;;;;;;;;4501525;28;20042;-62
2022/10/23 04:47:07;;;;;;;0.60;0.60;;;;;;;;;;4491553;28;20400;-62
2022/10/23 04:49:25;;;;;;;0.88;0.52;;;;;;;;;;4493014;28;20042;-61
2022/10/23 04:52:00;;;;;;;1.23;0.70;;;;;;;;;;4499369;28;20652;-62
2022/10/23 04:54:43;;;;;;;0.82;0.70;;;;;;;;;;4461422;28;20081;-62
2022/10/23 04:57:06;;;;;;;1.23;0.77;;;;;;;;;;4491344;28;20121;-62
2022/10/23 04:59:35;;;;;;;0.80;0.63;;;;;;;;;;4492204;28;20966;-62
2022/10/23 05:01:45;;;;;;;0.80;0.70;;;;;;;;;;4493960;28;20429;-62
2022/10/23 05:03:57;;;;;;;0.93;0.60;;;;;;;;;;4494244;28;20027;-62
2022/10/23 05:06:07;;;;;;;0.85;0.55;;;;;;;;;;4491078;28;20023;-61
2022/10/23 05:08:34;;;;;;;1.42;0.55;;;;;;;;;;4490672;28;20042;-62
2022/10/23 05:11:17;;;;;;;1.13;0.80;;;;;;;;;;4484472;28;20045;-62
2022/10/23 05:13:30;;;;;;;0.65;0.50;;;;;;;;;;4494694;28;20135;-62
2022/10/23 05:15:41;;;;;;;1.63;0.60;;;;;;;;;;4494015;28;20097;-63
2022/10/23 05:17:55;;;;;;;0.90;0.65;;;;;;;;;;4489997;28;38215;-63
2022/10/23 05:20:11;;;;;;;1.45;0.80;;;;;;;;;;4499837;28;20492;-62
2022/10/23 05:22:26;;;;;;;1.27;0.80;;;;;;;;;;4489543;28;20038;-62
2022/10/23 05:24:37;;;;;;;0.60;0.50;;;;;;;;;;4477256;28;20030;-62
2022/10/23 05:26:50;;;;;;;0.93;0.60;;;;;;;;;;4493696;28;20531;-62
2022/10/23 05:29:00;;;;;;;0.50;0.50;;;;;;;;;;4492916;28;20116;-62
2022/10/23 05:31:11;;;;;;;0.82;0.55;;;;;;;;;;4498982;28;20089;-61
2022/10/23 05:33:25;;;;;;;0.90;0.60;;;;;;;;;;4493621;28;21959;-62
2022/10/23 05:35:37;;;;;;;0.93;0.60;;;;;;;;;;4498712;28;20112;-61
2022/10/23 05:37:48;;;;;;;1.27;0.75;;;;;;;;;;4489764;28;20591;-62
2022/10/23 05:40:05;;;;;;;1.30;0.82;;;;;;;;;;4498548;28;20207;-62
2022/10/23 05:42:18;;;;;;;0.73;0.70;;;;;;;;;;4489987;28;20895;-62
2022/10/23 05:44:29;;;;;;;1.00;0.68;;;;;;;;;;4498861;28;20042;-62
2022/10/23 05:47:01;;;;;;;1.33;0.80;;;;;;;;;;4498165;28;20037;-61
2022/10/23 05:49:40;;;;;;;1.27;0.73;;;;;;;;;;4493270;28;20115;-62
2022/10/23 05:52:11;;;;;;;0.50;0.40;;;;;;;;;;4470885;28;20117;-62
2022/10/23 05:54:34;;;;;;;0.63;0.63;;;;;;;;;;4491125;28;20659;-62
2022/10/23 05:56:59;;;;;;;1.23;0.80;;;;;;;;;;4492557;28;20038;-62
2022/10/23 05:59:25;;;;;;;0.85;0.55;;;;;;;;;;4497855;28;20064;-62
2022/10/23 06:01:42;;;;;;;;;;;;;;;;;;4492725;28;20033;-62
2022/10/23 06:03:52;;;;;;;1.17;0.68;;;;;;;;;;4491180;28;19924;-63
2022/10/23 06:06:07;;;;;;;0.60;0.60;;;;;;;;;;4497790;28;20037;-62
2022/10/23 06:08:28;;;;;;;1.10;0.60;;;;;;;;;;4491100;28;20039;-62
2022/10/23 06:10:39;;;;;;;0.77;0.75;;;;;;;;;;4466150;28;20964;-62
2022/10/23 06:12:51;;;;;;;1.60;1.00;;;;;;;;;;4491456;28;20034;-61
2022/10/23 06:15:02;;;;;;;1.50;0.90;;;;;;;;;;4475778;28;20022;-62
2022/10/23 06:17:33;;;;;;;1.38;0.90;;;;;;;;;;4491884;28;20046;-62
2022/10/23 06:19:44;;;;;;;1.65;0.93;;;;;;;;;;4491653;28;20091;-62
2022/10/23 06:21:55;;;;;;;1.23;0.80;;;;;;;;;;4491344;28;20066;-62
2022/10/23 06:24:14;;;;;;;1.48;0.70;;;;;;;;;;4491752;28;21183;-63
2022/10/23 06:26:30;;;;;;;1.85;1.10;;;;;;;;;;4491494;28;20958;-62
2022/10/23 06:29:09;;;;;;;1.38;0.90;;;;;;;;;;4481199;28;20053;-62
2022/10/23 06:31:25;;;;;;;1.25;0.80;;;;;;;;;;4491928;28;20035;-62
2022/10/23 06:33:36;;;;;;;1.38;0.70;;;;;;;;;;4497088;28;20038;-62
2022/10/23 06:35:48;;;;;;;1.52;0.80;;;;;;;;;;4491360;28;20551;-62
2022/10/23 06:37:59;;;;;;;1.08;0.68;;;;;;;;;;4487551;28;20030;-62
2022/10/23 06:40:19;;;;;;;1.00;0.80;;;;;;;;;;4490189;28;20143;-62
2022/10/23 06:42:40;;;;;;;1.75;0.60;;;;;;;;;;4491604;28;20105;-62
2022/10/23 06:45:13;;;;;;;1.08;0.60;;;;;;;;;;4490421;28;20301;-61
2022/10/23 06:47:29;;;;;;;0.93;0.70;;;;;;;;;;4488552;28;20053;-62
2022/10/23 06:49:58;;;;;;;1.48;0.90;;;;;;;;;;4495979;28;20034;-62
2022/10/23 06:52:09;;;;;;;1.42;0.85;;;;;;;;;;4489270;28;20109;-63
2022/10/23 06:54:19;;;;;;;1.85;1.10;;;;;;;;;;4488368;28;31655;-62
2022/10/23 06:56:55;;;;;;;1.50;0.90;;;;;;;;;;4491226;28;20054;-62
2022/10/23 06:59:13;;;;;;;1.55;0.90;;;;;;;;;;4481835;28;20034;-62
2022/10/23 07:01:23;;;;;;;1.33;0.77;;;;;;;;;;4476164;28;20229;-63
2022/10/23 07:03:34;;;;;;;1.60;0.82;;;;;;;;;;4480277;28;23579;-62
2022/10/23 07:05:46;;;;;;;1.73;0.90;;;;;;;;;;4475565;28;20050;-62
2022/10/23 07:07:57;;;;;;;0.80;0.70;;;;;;;;;;4491201;28;20305;-62
2022/10/23 07:10:11;;;;;;;1.58;0.90;;;;;;;;;;4475425;28;20018;-62
2022/10/23 07:12:27;;;;;;;0.70;0.70;;;;;;;;;;4491794;28;20523;-62
2022/10/23 07:14:53;;;;;;;1.63;0.82;;;;;;;;;;4496578;28;20036;-62
2022/10/23 07:17:05;;;;;;;2.05;0.90;;;;;;;;;;4490748;28;20040;-62
2022/10/23 07:19:15;;;;;;;0.93;0.80;;;;;;;;;;4491106;28;20053;-61
2022/10/23 07:21:43;;;;;;;1.60;1.10;;;;;;;;;;4490682;28;20740;-63
2022/10/23 07:24:12;;;;;;;1.63;0.75;;;;;;;;;;4490794;28;20030;-61
2022/10/23 07:26:23;;;;;;;0.68;0.68;;;;;;;;;;4492087;28;20105;-62
2022/10/23 07:28:35;;;;;;;0.90;0.63;;;;;;;;;;4492441;28;20152;-62
2022/10/23 07:30:56;;;;;;;0.73;0.63;;;;;;;;;;4486945;28;20132;-62
2022/10/23 07:33:07;;;;;;;0.90;0.80;;;;;;;;;;4488033;28;20105;-61
2022/10/23 07:35:40;;;;;;;1.00;0.80;;;;;;;;;;4490363;28;20096;-62
2022/10/23 07:37:54;;;;;;;1.02;0.80;;;;;;;;;;4486935;28;20037;-62
2022/10/23 07:40:06;;;;;;;1.42;0.80;;;;;;;;;;4490765;28;20042;-61
2022/10/23 07:42:23;;;;;;;1.75;0.88;;;;;;;;;;4497154;28;20653;-62
2022/10/23 07:44:34;;;;;;;1.02;0.70;;;;;;;;;;4491740;28;20144;-62
2022/10/23 07:46:45;;;;;;;0.70;0.70;;;;;;;;;;4488222;28;20045;-62
2022/10/23 07:48:55;;;;;;;1.15;0.88;;;;;;;;;;4490668;28;20082;-62
2022/10/23 07:51:10;;;;;;;1.30;0.98;;;;;;;;;;4488996;28;20030;-62
2022/10/23 07:53:26;;;;;;;1.05;0.80;;;;;;;;;;4480923;28;20141;-62
2022/10/23 07:55:39;;;;;;;1.08;0.90;;;;;;;;;;4481301;28;20594;-62
2022/10/23 07:57:56;;;;;;;1.00;0.90;;;;;;;;;;4490767;28;20029;-62
2022/10/23 08:00:21;;;;;;;1.10;0.90;;;;;;;;;;4495593;28;20044;-62
2022/10/23 08:02:40;;;;;;;1.55;0.82;;;;;;;;;;4493153;28;20034;-62
2022/10/23 08:04:52;;;;;;;1.35;0.90;;;;;;;;;;4493257;28;20037;-62
2022/10/23 08:07:13;;;;;;;1.42;0.80;;;;;;;;;;4475888;28;20139;-62
2022/10/23 08:09:26;;;;;;;1.15;0.90;;;;;;;;;;4493353;28;20074;-62
2022/10/23 08:11:37;;;;;;;0.95;0.75;;;;;;;;;;4492616;28;20121;-62
2022/10/23 08:13:54;;;;;;;1.63;0.95;;;;;;;;;;4491778;28;20031;-63
2022/10/23 08:16:07;;;;;;;1.33;0.90;;;;;;;;;;4495930;28;20025;-62
2022/10/23 08:18:36;;;;;;;1.20;1.10;;;;;;;;;;4489833;28;20199;-63
2022/10/23 08:20:47;;;;;;;0.88;0.70;;;;;;;;;;4494359;28;20043;-62
2022/10/23 08:22:58;;;;;;;0.90;0.70;;;;;;;;;;4489342;28;20536;-63
2022/10/23 08:25:10;;;;;;;1.45;1.00;;;;;;;;;;4492775;28;20041;-63
2022/10/23 08:27:20;;;;;;;0.70;0.60;;;;;;;;;;4488749;28;20495;-63
2022/10/23 08:29:32;;;;;;;0.93;0.77;;;;;;;;;;4493544;28;21618;-63
2022/10/23 08:31:43;;;;;;;1.67;0.70;;;;;;;;;;4492780;28;20041;-63
2022/10/23 08:34:02;;;;;;;1.25;0.75;;;;;;;;;;4499725;28;20646;-63
2022/10/23 08:36:23;;;;;;;0.98;0.85;;;;;;;;;;4491503;28;20030;-63
2022/10/23 08:38:34;;;;;;;1.10;0.77;;;;;;;;;;4498753;28;20162;-63
2022/10/23 08:40:47;;;;;;;1.10;1.00;;;;;;;;;;4492892;28;20034;-64
2022/10/23 08:43:43;;;;;;;1.67;0.85;;;;;;;;;;4484858;28;20038;-63
2022/10/23 08:46:17;;;;;;;1.23;0.82;;;;;;;;;;4491551;28;20059;-63
2022/10/23 08:49:37;;;;;;;0.85;0.63;;;;;;;;;;4496657;28;20100;-63
2022/10/23 08:51:50;;;;;;;0.70;0.70;;;;;;;;;;4493372;28;20575;-63
2022/10/23 08:54:10;;;;;;;1.13;0.70;;;;;;;;;;4494925;28;20033;-63
2022/10/23 08:56:27;;;;;;;0.75;0.65;;;;;;;;;;4492785;28;20042;-63
2022/10/23 08:58:54;;;;;;;;;;;;;;;;;;4494375;28;20042;-63
2022/10/23 09:01:28;;;;;;;1.17;0.70;;;;;;;;;;4490494;28;19921;-63
2022/10/23 09:03:38;;;;;;;0.70;0.60;;;;;;;;;;4490773;28;20166;-63
2022/10/23 09:06:14;;;;;;;0.85;0.50;;;;;;;;;;4490687;28;20151;-63
2022/10/23 09:08:30;;;;;;;1.30;0.85;;;;;;;;;;4494468;28;20092;-63
2022/10/23 09:11:18;;;;;;;1.20;0.80;;;;;;;;;;4490757;28;20061;-63
2022/10/23 09:13:34;;;;;;;1.02;0.60;;;;;;;;;;4488935;28;20184;-63
2022/10/23 09:16:11;;;;;;;0.65;0.55;;;;;;;;;;4491713;28;20123;-63
2022/10/23 09:18:23;;;;;;;0.93;0.77;;;;;;;;;;4490350;28;20105;-62
2022/10/23 09:20:35;;;;;;;0.90;0.60;;;;;;;;;;4490394;28;20032;-63
2022/10/23 09:22:47;;;;;;;0.65;0.60;;;;;;;;;;4488972;28;20350;-63
2022/10/23 09:24:57;;;;;;;1.17;0.80;;;;;;;;;;4491484;28;20038;-63
2022/10/23 09:27:12;;;;;;;1.48;0.88;;;;;;;;;;4490483;28;22752;-63
2022/10/23 09:29:30;;;;;;;1.40;0.70;;;;;;;;;;4490293;28;20592;-63
2022/10/23 09:31:52;;;;;;;0.85;0.70;;;;;;;;;;4489202;28;20030;-63
2022/10/23 09:34:03;;;;;;;0.90;0.60;;;;;;;;;;4490605;28;20058;-63
2022/10/23 09:36:18;;;;;;;0.75;0.60;;;;;;;;;;4482010;28;20607;-63
2022/10/23 09:38:45;;;;;;;1.00;0.47;;;;;;;;;;4490156;28;20124;-63
2022/10/23 09:40:58;;;;;;;1.10;0.70;;;;;;;;;;4489545;28;20630;-63
2022/10/23 09:43:14;;;;;;;1.02;0.70;;;;;;;;;;4490959;28;20078;-63
2022/10/23 09:45:34;;;;;;;0.55;0.50;;;;;;;;;;4475466;28;20068;-61
2022/10/23 09:47:49;;;;;;;1.75;0.63;;;;;;;;;;4488293;28;20140;-61
2022/10/23 09:49:59;;;;;;;0.90;0.70;;;;;;;;;;4489633;28;20038;-62
2022/10/23 09:52:10;;;;;;;1.13;0.70;;;;;;;;;;4490335;28;20497;-62
2022/10/23 09:54:22;;;;;;;1.08;0.60;;;;;;;;;;4488390;28;20026;-62
2022/10/23 09:56:39;;;;;;;0.70;0.55;;;;;;;;;;4488357;28;20399;-62
2022/10/23 09:58:56;;;;;;;0.47;0.47;;;;;;;;;;4493865;28;20072;-62
2022/10/23 10:01:21;;;;;;;0.77;0.60;;;;;;;;;;4488921;28;20077;-62
2022/10/23 10:03:33;;;;;;;1.00;0.60;;;;;;;;;;4482788;28;20043;-61
2022/10/23 10:05:59;;;;;;;0.77;0.50;;;;;;;;;;4498203;28;20032;-61
2022/10/23 10:08:27;;;;;;;1.60;0.63;;;;;;;;;;4490980;28;20609;-61
2022/10/23 10:10:44;;;;;;;0.75;0.50;;;;;;;;;;4481750;28;20116;-62
2022/10/23 10:13:02;;;;;;;1.20;0.63;;;;;;;;;;4489648;28;20034;-62
2022/10/23 10:15:23;;;;;;;1.05;0.55;;;;;;;;;;4492925;28;21443;-62
2022/10/23 10:17:39;;;;;;;1.80;0.70;;;;;;;;;;4489423;28;20046;-63
2022/10/23 10:20:11;;;;;;;1.05;0.50;;;;;;;;;;4488642;28;20129;-62
2022/10/23 10:22:33;;;;;;;0.65;0.55;;;;;;;;;;4498630;28;20658;-62
2022/10/23 10:24:51;;;;;;;1.15;0.60;;;;;;;;;;4487166;28;20045;-61
2022/10/23 10:27:12;;;;;;;1.02;0.70;;;;;;;;;;4491038;28;20676;-62
2022/10/23 10:29:50;;;;;;;1.98;0.90;;;;;;;;;;4489317;28;20634;-62
2022/10/23 10:32:10;;;;;;;;;;;;;;;;;;4487848;28;20416;-61
2022/10/23 10:34:38;;;;;;;1.17;0.60;;;;;;;;;;4490144;28;20490;-62
2022/10/23 10:36:49;;;;;;;1.15;0.60;;;;;;;;;;4497307;28;20503;-61
2022/10/23 10:39:02;;;;;;;2.67;0.77;;;;;;;;;;4487322;28;20093;-62
2022/10/23 10:41:31;;;;;;;0.90;0.43;;;;;;;;;;4482236;28;20046;-62
2022/10/23 10:43:59;;;;;;;1.13;0.47;;;;;;;;;;4489369;28;20874;-62
2022/10/23 10:46:24;;;;;;;1.27;0.65;;;;;;;;;;4488034;28;20034;-62
2022/10/23 10:48:49;;;;;;;0.80;0.52;;;;;;;;;;4504247;28;20233;-62
2022/10/23 10:51:31;;;;;;;1.05;0.60;;;;;;;;;;4479942;28;20697;-63
2022/10/23 10:54:15;;;;;;;1.17;0.60;;;;;;;;;;4488631;28;20140;-63
2022/10/23 10:56:27;;;;;;;0.77;0.47;;;;;;;;;;4488563;28;20986;-61
2022/10/23 10:58:42;;;;;;;1.15;0.60;;;;;;;;;;4492475;28;20034;-62
2022/10/23 11:00:59;;;;;;;0.95;0.55;;;;;;;;;;4489627;28;20100;-63
2022/10/23 11:03:22;;;;;;;1.40;0.60;;;;;;;;;;4481847;28;20410;-62
2022/10/23 11:05:37;;;;;;;0.98;0.50;;;;;;;;;;4489734;28;20046;-62
2022/10/23 11:08:21;;;;;;;0.73;0.60;;;;;;;;;;4488213;28;20345;-62
2022/10/23 11:10:32;;;;;;;0.77;0.60;;;;;;;;;;4488477;28;20137;-62
2022/10/23 11:12:45;;;;;;;0.85;0.60;;;;;;;;;;4492118;28;20037;-61
2022/10/23 11:14:56;;;;;;;0.93;0.70;;;;;;;;;;4489453;28;20034;-62
2022/10/23 11:17:14;;;;;;;1.05;0.60;;;;;;;;;;4496504;28;20104;-62
2022/10/23 11:19:33;;;;;;;1.08;0.60;;;;;;;;;;4492668;28;20038;-62
2022/10/23 11:22:07;;;;;;;0.88;0.50;;;;;;;;;;4489118;28;20163;-62
2022/10/23 11:24:41;;;;;;;1.00;0.50;;;;;;;;;;4491027;28;21233;-62
2022/10/23 11:27:01;;;;;;;0.73;0.50;;;;;;;;;;4487223;28;20039;-62
2022/10/23 11:29:26;;;;;;;1.00;0.55;;;;;;;;;;4497105;28;20050;-62
2022/10/23 11:32:09;;;;;;;1.02;0.50;;;;;;;;;;4490007;28;20034;-62
2022/10/23 11:34:42;;;;;;;1.42;0.60;;;;;;;;;;4497170;28;20109;-62
2022/10/23 11:36:54;;;;;;;0.70;0.52;;;;;;;;;;4491182;28;20594;-62
2022/10/23 11:39:28;;;;;;;0.70;0.40;;;;;;;;;;4485198;28;20034;-62
2022/10/23 11:41:54;;;;;;;0.77;0.52;;;;;;;;;;4485027;28;20033;-62
2022/10/23 11:44:23;;;;;;;0.63;0.55;;;;;;;;;;4492168;28;20018;-63
2022/10/23 11:46:37;;;;;;;1.15;0.55;;;;;;;;;;4489609;28;20085;-62
2022/10/23 11:48:48;;;;;;;0.90;0.50;;;;;;;;;;4491608;28;20050;-62
2022/10/23 11:50:59;;;;;;;0.65;0.50;;;;;;;;;;4493283;28;20088;-62
2022/10/23 11:53:30;;;;;;;1.42;0.68;;;;;;;;;;4492547;28;20364;-62
2022/10/23 11:56:05;;;;;;;1.17;0.55;;;;;;;;;;4491236;28;20034;-62
2022/10/23 11:58:22;;;;;;;0.65;0.50;;;;;;;;;;4496488;28;20030;-62
2022/10/23 12:00:34;;;;;;;0.70;0.50;;;;;;;;;;4499983;28;20030;-62
2022/10/23 12:02:50;;;;;;;1.08;0.50;;;;;;;;;;4490900;28;21045;-62
2022/10/23 12:05:06;;;;;;;2.95;0.60;;;;;;;;;;4500326;28;20610;-62
2022/10/23 12:07:29;;;;;;;0.93;0.43;;;;;;;;;;4490723;28;20038;-62
2022/10/23 12:09:42;;;;;;;1.13;0.52;;;;;;;;;;4483141;28;20046;-62
2022/10/23 12:12:30;;;;;;;1.08;0.50;;;;;;;;;;4492213;28;20042;-62
2022/10/23 12:14:42;;;;;;;1.35;0.60;;;;;;;;;;4476672;28;20076;-62
2022/10/23 12:16:53;;;;;;;1.80;0.90;;;;;;;;;;4499091;28;20545;-62
2022/10/23 12:19:18;;;;;;;1.52;0.52;;;;;;;;;;4490131;28;20769;-68
2022/10/23 12:21:33;;;;;;;0.73;0.50;;;;;;;;;;4494594;28;20104;-63
2022/10/23 12:24:08;;;;;;;1.00;0.60;;;;;;;;;;4479004;28;20038;-65
2022/10/23 12:26:20;;;;;;;0.95;0.50;;;;;;;;;;4495072;28;20042;-62
2022/10/23 12:28:43;;;;;;;1.15;0.60;;;;;;;;;;4483084;28;20038;-63
2022/10/23 12:31:16;;;;;;;0.90;0.80;;;;;;;;;;4499165;28;20097;-62
2022/10/23 12:33:42;;;;;;;0.77;0.50;;;;;;;;;;4476737;28;20042;-63
2022/10/23 12:35:59;;;;;;;1.45;0.55;;;;;;;;;;4491332;28;20030;-62
2022/10/23 12:38:28;;;;;;;0.98;0.50;;;;;;;;;;4493213;28;20054;-63
2022/10/23 12:40:39;;;;;;;0.60;0.45;;;;;;;;;;4490068;28;21333;-62
2022/10/23 12:42:53;;;;;;;0.68;0.40;;;;;;;;;;4499158;28;20030;-62
2022/10/23 12:45:36;;;;;;;0.70;0.40;;;;;;;;;;4482498;28;20149;-62
2022/10/23 12:47:47;;;;;;;1.27;0.50;;;;;;;;;;4489549;28;20504;-62
2022/10/23 12:49:57;;;;;;;0.50;0.50;;;;;;;;;;4499716;28;20857;-62
2022/10/23 12:52:16;;;;;;;0.68;0.52;;;;;;;;;;4491272;28;20049;-62
2022/10/23 12:54:29;;;;;;;1.25;0.47;;;;;;;;;;4488502;28;20034;-63
2022/10/23 12:56:39;;;;;;;0.40;0.38;;;;;;;;;;4499205;28;20034;-62
2022/10/23 12:58:54;;;;;;;0.50;0.40;;;;;;;;;;4490700;28;22882;-62
2022/10/23 13:01:06;;;;;;;1.00;0.40;;;;;;;;;;4489933;28;20038;-62
2022/10/23 13:03:16;;;;;;;0.45;0.40;;;;;;;;;;4498815;28;20042;-62
2022/10/23 13:05:27;;;;;;;0.68;0.40;;;;;;;;;;4491718;28;20101;-62
2022/10/23 13:07:42;;;;;;;0.40;0.40;;;;;;;;;;4491250;28;20038;-62
2022/10/23 13:09:53;;;;;;;0.40;0.40;;;;;;;;;;4499815;28;20042;-62
2022/10/23 13:12:19;;;;;;;0.52;0.30;;;;;;;;;;4483410;28;20606;-62
2022/10/23 13:14:34;;;;;;;1.00;0.40;;;;;;;;;;4493271;28;20042;-63
2022/10/23 13:16:44;;;;;;;0.73;0.60;;;;;;;;;;4490893;28;20121;-62
2022/10/23 13:18:58;;;;;;;0.60;0.50;;;;;;;;;;4490857;28;20030;-62
2022/10/23 13:21:35;;;;;;;0.88;0.50;;;;;;;;;;4491426;28;20034;-63
2022/10/23 13:23:46;;;;;;;0.88;0.40;;;;;;;;;;4485809;28;20051;-62
2022/10/23 13:25:59;;;;;;;1.17;0.50;;;;;;;;;;4492460;28;20069;-62
2022/10/23 13:28:14;;;;;;;0.70;0.40;;;;;;;;;;4489854;28;20050;-64
2022/10/23 13:30:39;;;;;;;0.30;0.30;;;;;;;;;;4494010;28;20034;-62
2022/10/23 13:32:49;;;;;;;1.17;0.50;;;;;;;;;;4490960;28;20674;-63
2022/10/23 13:35:02;;;;;;;0.88;0.50;;;;;;;;;;4490113;28;20130;-62
2022/10/23 13:37:27;;;;;;;0.68;0.50;;;;;;;;;;4492425;28;20045;-62
2022/10/23 13:39:37;;;;;;;1.10;0.60;;;;;;;;;;4474624;28;20039;-62
2022/10/23 13:41:48;;;;;;;0.40;0.40;;;;;;;;;;4489268;28;20034;-62
2022/10/23 13:44:01;;;;;;;0.50;0.50;;;;;;;;;;4489179;28;20592;-62
2022/10/23 13:46:19;;;;;;;0.70;0.60;;;;;;;;;;4490779;28;20038;-62